Time;durP1;ratioP1;P1;durP2;ratioP2;P2;SDS_P1;SDS_P2;PMS_P1;PMS_P2;Temp;Humidity;BMP_temperature;BMP_pressure;BME280_temperature;BME280_humidity;BME280_pressure;Samples;Min_cycle;Max_cycle;Signal;HPM_P1;HPM_P2
2023/08/24 00:00:32;;;;;;;1.30;1.00;;;;;;;14.67;100.00;100058.62;105007;1259;61731;-53
2023/08/24 00:02:59;;;;;;;1.20;0.80;;;;;;;14.65;100.00;100058.57;105326;1260;60694;-52
2023/08/24 00:05:26;;;;;;;2.30;0.60;;;;;;;14.61;100.00;100057.02;105183;1259;72963;-50
2023/08/24 00:07:54;;;;;;;2.90;0.80;;;;;;;14.58;100.00;100059.89;104856;1259;65865;-53
2023/08/24 00:10:21;;;;;;;4.70;0.70;;;;;;;14.57;100.00;100059.59;104852;1259;72616;-53
2023/08/24 00:12:48;;;;;;;1.70;0.80;;;;;;;14.54;100.00;100059.40;104955;1262;62160;-51
2023/08/24 00:15:16;;;;;;;3.40;0.90;;;;;;;14.51;100.00;100063.02;104845;1254;60484;-52
2023/08/24 00:17:43;;;;;;;1.70;0.60;;;;;;;14.50;100.00;100064.16;104553;1259;73741;-51
2023/08/24 00:20:11;;;;;;;1.30;0.70;;;;;;;14.49;100.00;100063.52;104644;1257;65487;-52
2023/08/24 00:22:39;;;;;;;1.80;0.70;;;;;;;14.44;100.00;100062.53;104405;1254;74881;-53
2023/08/24 00:25:07;;;;;;;1.40;0.90;;;;;;;14.42;100.00;100055.80;104594;1258;60670;-52
2023/08/24 00:27:35;;;;;;;6.30;1.00;;;;;;;14.43;100.00;100057.94;104520;1254;60447;-52
2023/08/24 00:30:04;;;;;;;2.80;0.90;;;;;;;14.43;100.00;100058.81;104395;1259;74671;-52
2023/08/24 00:32:34;;;;;;;3.10;0.80;;;;;;;14.44;100.00;100059.48;104349;1261;65677;-51
2023/08/24 00:35:06;;;;;;;1.40;0.70;;;;;;;14.43;100.00;100059.73;108735;1256;73851;-52
2023/08/24 00:37:33;;;;;;;2.50;0.70;;;;;;;14.40;100.00;100063.48;108730;1258;61738;-51
2023/08/24 00:40:08;;;;;;;2.60;0.80;;;;;;;14.37;100.00;100063.61;108699;1259;58735;-52
2023/08/24 00:42:39;;;;;;;3.60;0.90;;;;;;;14.33;100.00;100062.20;108826;1255;75837;-52
2023/08/24 00:45:09;;;;;;;1.80;0.70;;;;;;;14.27;100.00;100060.96;108795;1258;66911;-51
2023/08/24 00:47:37;;;;;;;1.50;0.80;;;;;;;14.26;100.00;100061.18;108755;1258;73123;-52
2023/08/24 00:50:06;;;;;;;1.80;0.80;;;;;;;14.26;100.00;100059.03;108739;1255;60431;-52
2023/08/24 00:52:33;;;;;;;2.90;0.60;;;;;;;14.29;100.00;100056.54;108660;1254;59921;-53
2023/08/24 00:55:01;;;;;;;4.10;0.80;;;;;;;14.31;100.00;100050.95;108718;1258;73847;-52
2023/08/24 00:57:28;;;;;;;1.90;0.90;;;;;;;14.32;100.00;100052.91;108869;1256;66768;-53
2023/08/24 00:59:56;;;;;;;2.20;1.10;;;;;;;14.32;100.00;100049.64;108788;1259;72609;-52
2023/08/24 01:02:23;;;;;;;2.30;0.90;;;;;;;14.34;100.00;100049.20;108690;1258;59830;-52
2023/08/24 01:04:53;;;;;;;1.20;0.90;;;;;;;14.30;100.00;100047.77;108744;1256;62108;-53
2023/08/24 01:07:20;;;;;;;4.20;1.10;;;;;;;14.26;100.00;100050.52;108626;1259;73008;-52
2023/08/24 01:09:47;;;;;;;1.60;0.90;;;;;;;14.23;100.00;100049.11;108611;1261;67217;-51
2023/08/24 01:12:18;;;;;;;1.80;0.80;;;;;;;14.20;100.00;100049.31;108720;1254;71414;-52
2023/08/24 01:15:12;;;;;;;1.00;0.70;;;;;;;14.16;100.00;100046.46;106341;1262;59443;-50
2023/08/24 01:17:41;;;;;;;1.20;0.80;;;;;;;14.13;100.00;100044.80;104464;1254;60466;-52
2023/08/24 01:20:10;;;;;;;3.30;1.10;;;;;;;14.11;100.00;100043.34;108606;1258;72538;-54
2023/08/24 01:23:02;;;;;;;4.30;0.80;;;;;;;14.09;100.00;100045.25;106353;1255;67263;-52
2023/08/24 01:25:46;;;;;;;0.90;0.70;;;;;;;14.10;100.00;100042.33;104263;1261;72632;-52
2023/08/24 01:28:13;;;;;;;8.30;1.00;;;;;;;14.11;100.00;100044.41;104296;1259;61781;-51
2023/08/24 01:30:40;;;;;;;2.80;0.80;;;;;;;14.12;100.00;100045.22;104211;1254;60598;-51
2023/08/24 01:33:11;;;;;;;1.50;1.00;;;;;;;14.13;100.00;100046.27;104385;1262;72600;-51
2023/08/24 01:35:40;;;;;;;2.10;0.90;;;;;;;14.13;100.00;100043.73;104159;1264;72006;-51
2023/08/24 01:38:12;;;;;;;1.10;0.80;;;;;;;14.15;100.00;100042.55;104942;1258;71848;-50
2023/08/24 01:41:16;;;;;;;1.20;0.90;;;;;;;14.17;100.00;100044.08;104922;1259;60983;-52
2023/08/24 01:43:45;;;;;;;3.40;0.90;;;;;;;14.15;100.00;100042.55;106305;1260;60474;-52
2023/08/24 01:46:14;;;;;;;3.40;0.90;;;;;;;14.10;100.00;100041.95;104607;1260;73774;-54
2023/08/24 01:48:43;;;;;;;3.60;0.90;;;;;;;14.01;100.00;100039.92;104828;1261;66224;-52
2023/08/24 01:51:11;;;;;;;3.00;0.80;;;;;;;13.93;100.00;100042.58;105097;1254;71447;-53
2023/08/24 01:53:39;;;;;;;1.70;0.80;;;;;;;13.87;100.00;100047.27;104985;1261;62096;-51
2023/08/24 01:56:11;;;;;;;1.80;0.90;;;;;;;13.83;100.00;100047.81;104517;1259;60623;-52
2023/08/24 01:58:38;;;;;;;1.10;0.80;;;;;;;13.83;100.00;100043.51;104380;1256;73791;-50
2023/08/24 02:01:06;;;;;;;3.60;0.80;;;;;;;-42.90;59.60;60027.84;102936;1260;1003044;-49
2023/08/24 02:03:33;;;;;;;1.70;0.70;;;;;;;14.01;100.00;100043.35;104171;1263;72679;-51
2023/08/24 02:06:00;;;;;;;4.30;1.20;;;;;;;14.00;100.00;100040.52;106469;1260;61684;-49
2023/08/24 02:08:30;;;;;;;3.30;0.90;;;;;;;13.97;100.00;100041.77;105194;1259;60557;-50
2023/08/24 02:10:58;;;;;;;1.10;0.80;;;;;;;13.96;100.00;100043.98;104603;1260;72590;-50
2023/08/24 02:13:25;;;;;;;1.80;0.90;;;;;;;13.98;100.00;100046.60;104478;1255;68202;-49
2023/08/24 02:16:03;;;;;;;5.00;1.00;;;;;;;13.99;100.00;100046.02;104375;1259;72652;-49
2023/08/24 02:18:31;;;;;;;1.50;1.00;;;;;;;13.99;100.00;100047.95;104764;1259;60611;-49
2023/08/24 02:20:58;;;;;;;1.70;1.20;;;;;;;14.00;100.00;100046.70;104452;1256;61880;-49
2023/08/24 02:23:25;;;;;;;3.00;0.90;;;;;;;14.00;100.00;100042.85;104484;1255;73885;-52
2023/08/24 02:25:56;;;;;;;1.50;1.00;;;;;;;13.96;100.00;100049.24;104280;1255;66881;-50
2023/08/24 02:28:23;;;;;;;2.20;1.00;;;;;;;13.87;100.00;100052.46;105778;1256;71813;-50
2023/08/24 02:30:50;;;;;;;5.40;1.20;;;;;;;13.80;100.00;100057.73;104372;1255;60656;-48
2023/08/24 02:33:18;;;;;;;1.40;0.80;;;;;;;13.77;100.00;100056.16;104317;1258;60493;-50
2023/08/24 02:35:48;;;;;;;1.70;0.80;;;;;;;13.75;100.00;100056.59;104446;1257;74047;-50
2023/08/24 02:38:15;;;;;;;3.20;0.90;;;;;;;13.75;100.00;100057.16;104391;1262;66706;-49
2023/08/24 02:40:43;;;;;;;1.60;0.80;;;;;;;13.73;100.00;100057.96;104649;1254;73129;-50
2023/08/24 02:43:10;;;;;;;1.50;0.80;;;;;;;13.70;100.00;100056.48;104830;1255;60743;-52
2023/08/24 02:48:21;;;;;;;2.70;1.20;;;;;;;13.70;100.00;100076.20;101525;1292;599650;-49
2023/08/24 02:50:48;;;;;;;1.90;1.00;;;;;;;13.72;100.00;100072.61;103544;1266;59510;-51
2023/08/24 02:53:16;;;;;;;1.70;1.20;;;;;;;13.72;100.00;100067.42;103495;1266;60974;-48
2023/08/24 02:55:43;;;;;;;2.90;1.00;;;;;;;13.68;100.00;100068.70;103881;1272;72738;-49
2023/08/24 02:58:11;;;;;;;1.90;1.10;;;;;;;13.63;100.00;100067.71;103694;1266;65702;-49
2023/08/24 03:00:38;;;;;;;3.00;1.10;;;;;;;13.60;100.00;100063.20;104076;1260;74028;-49
2023/08/24 03:03:06;;;;;;;1.10;0.80;;;;;;;13.57;100.00;100067.17;104135;1257;140689;-50
2023/08/24 03:05:33;;;;;;;1.60;0.90;;;;;;;13.55;100.00;100066.91;104464;1256;59447;-48
2023/08/24 03:08:00;;;;;;;3.00;1.00;;;;;;;13.54;100.00;100065.52;104701;1253;72702;-50
2023/08/24 03:10:28;;;;;;;2.10;1.30;;;;;;;13.54;100.00;100060.80;104533;1253;67640;-49
2023/08/24 03:12:55;;;;;;;1.40;0.90;;;;;;;13.56;100.00;100057.65;104622;1256;73577;-50
2023/08/24 03:15:23;;;;;;;3.30;1.00;;;;;;;13.59;100.00;100058.77;105710;1254;62268;-51
2023/08/24 03:17:52;;;;;;;1.10;0.90;;;;;;;13.59;100.00;100060.76;104588;1257;59787;-49
2023/08/24 03:20:20;;;;;;;2.10;1.00;;;;;;;13.56;100.00;100060.34;104540;1253;73062;-51
2023/08/24 03:22:47;;;;;;;1.50;1.00;;;;;;;13.52;100.00;100060.40;104478;1254;67607;-50
2023/08/24 03:25:15;;;;;;;0.70;0.70;;;;;;;13.51;100.00;100060.85;104569;1257;71367;-49
2023/08/24 03:27:42;;;;;;;0.90;0.80;;;;;;;13.53;100.00;100059.10;104424;1253;59944;-50
2023/08/24 03:30:10;;;;;;;1.70;1.10;;;;;;;13.56;100.00;100058.20;104512;1254;59970;-51
2023/08/24 03:32:37;;;;;;;3.60;0.90;;;;;;;13.60;100.00;100056.91;104526;1254;71788;-49
2023/08/24 03:35:05;;;;;;;2.80;1.40;;;;;;;13.59;100.00;100056.56;108675;1254;65656;-49
2023/08/24 03:37:33;;;;;;;2.00;1.00;;;;;;;13.54;100.00;100062.06;108816;1254;71481;-49
2023/08/24 03:40:02;;;;;;;3.40;0.90;;;;;;;13.50;100.00;100061.23;108922;1254;60365;-50
2023/08/24 03:42:30;;;;;;;1.80;0.80;;;;;;;13.49;100.00;100067.07;108897;1254;58862;-49
2023/08/24 03:44:59;;;;;;;1.80;0.90;;;;;;;13.48;100.00;100065.83;108905;1254;72304;-49
2023/08/24 03:47:26;;;;;;;4.10;0.80;;;;;;;13.48;100.00;100072.88;109119;1254;67582;-49
2023/08/24 03:49:54;;;;;;;2.50;0.90;;;;;;;13.49;100.00;100080.76;108832;1254;71505;-51
2023/08/24 03:52:22;;;;;;;1.10;0.90;;;;;;;13.54;100.00;100075.81;108923;1254;61635;-49
2023/08/24 03:54:49;;;;;;;1.10;0.90;;;;;;;13.60;100.00;100070.79;108937;1253;62275;-47
2023/08/24 03:57:17;;;;;;;3.60;0.90;;;;;;;13.69;100.00;100072.98;109006;1253;72768;-50
2023/08/24 03:59:44;;;;;;;1.10;0.90;;;;;;;13.81;100.00;100067.23;108877;1254;67708;-48
2023/08/24 04:02:12;;;;;;;2.60;0.80;;;;;;;13.92;100.00;100069.71;108720;1254;73653;-48
2023/08/24 04:04:39;;;;;;;2.50;0.80;;;;;;;14.01;100.00;100060.14;108883;1256;61682;-48
2023/08/24 04:07:06;;;;;;;2.30;1.20;;;;;;;14.13;100.00;100061.27;108716;1259;59193;-48
2023/08/24 04:09:34;;;;;;;1.50;1.00;;;;;;;14.28;100.00;100062.34;107449;1254;73039;-48
2023/08/24 04:12:01;;;;;;;3.50;1.20;;;;;;;14.47;100.00;100057.87;104893;1253;67917;-48
2023/08/24 04:14:28;;;;;;;3.60;0.90;;;;;;;14.63;100.00;100054.88;105185;1257;72716;-49
2023/08/24 04:16:56;;;;;;;2.00;0.90;;;;;;;14.80;100.00;100053.65;105079;1254;60076;-49
2023/08/24 04:19:23;;;;;;;2.50;1.10;;;;;;;14.92;100.00;100052.40;105606;1254;60936;-50
2023/08/24 04:21:51;;;;;;;1.70;0.90;;;;;;;15.06;100.00;100050.23;105000;1258;73050;-48
2023/08/24 04:24:18;;;;;;;1.00;0.90;;;;;;;15.32;100.00;100048.27;104944;1254;67859;-50
2023/08/24 04:26:46;;;;;;;2.20;1.00;;;;;;;15.68;100.00;100042.38;104842;1254;72911;-49
2023/08/24 04:29:13;;;;;;;3.40;0.80;;;;;;;16.08;100.00;100033.02;104856;1258;60020;-49
2023/08/24 04:31:42;;;;;;;3.50;1.00;;;;;;;16.49;100.00;100029.54;105012;1260;60056;-49
2023/08/24 04:34:11;;;;;;;2.20;0.90;;;;;;;16.92;100.00;100023.62;104968;1254;71728;-48
2023/08/24 04:36:38;;;;;;;2.20;0.90;;;;;;;17.37;100.00;100018.95;104819;1254;66293;-51
2023/08/24 04:39:05;;;;;;;0.90;0.80;;;;;;;17.81;100.00;100010.89;104866;1254;73372;-49
2023/08/24 04:41:33;;;;;;;1.80;1.00;;;;;;;18.20;100.00;100007.78;104876;1258;60185;-51
2023/08/24 04:44:00;;;;;;;3.50;1.00;;;;;;;18.40;100.00;100003.88;104927;1254;60011;-51
2023/08/24 04:46:28;;;;;;;1.50;0.90;;;;;;;18.49;100.00;99997.88;104978;1259;73479;-50
2023/08/24 04:48:55;;;;;;;4.20;0.90;;;;;;;18.54;100.00;99994.21;105113;1254;66536;-50
2023/08/24 04:51:23;;;;;;;2.50;1.20;;;;;;;18.49;100.00;99995.14;104786;1254;72642;-49
2023/08/24 04:53:50;;;;;;;1.70;0.90;;;;;;;18.42;100.00;99990.98;105013;1255;59758;-51
2023/08/24 04:56:19;;;;;;;2.00;1.10;;;;;;;18.36;100.00;99992.21;104950;1259;59250;-50
2023/08/24 04:58:56;;;;;;;1.30;0.90;;;;;;;18.31;100.00;99995.13;105058;1254;73516;-49
2023/08/24 05:01:27;;;;;;;9.60;0.90;;;;;;;18.27;100.00;99995.48;105051;1254;66566;-49
2023/08/24 05:03:54;;;;;;;2.30;0.60;;;;;;;18.26;100.00;99992.27;104724;1259;73191;-50
2023/08/24 05:06:22;;;;;;;1.10;0.70;;;;;;;18.27;100.00;99993.81;105106;1254;61609;-50
2023/08/24 05:08:49;;;;;;;1.50;0.80;;;;;;;18.28;100.00;99998.27;105134;1254;59990;-48
2023/08/24 05:11:18;;;;;;;1.10;0.90;;;;;;;18.31;100.00;100001.84;104825;1254;71838;-49
2023/08/24 05:13:45;;;;;;;2.30;0.80;;;;;;;18.33;100.00;100005.48;104865;1254;66709;-49
2023/08/24 05:16:13;;;;;;;1.40;0.90;;;;;;;18.36;100.00;100004.16;104992;1259;71847;-50
2023/08/24 05:18:40;;;;;;;1.20;0.80;;;;;;;18.39;100.00;100004.46;105056;1257;59701;-50
2023/08/24 05:21:07;;;;;;;3.90;0.80;;;;;;;18.43;100.00;100001.29;105039;1259;62138;-51
2023/08/24 05:23:35;;;;;;;2.50;0.80;;;;;;;18.46;100.00;100001.96;104930;1254;72582;-48
2023/08/24 05:26:03;;;;;;;2.90;0.70;;;;;;;18.48;100.00;100000.34;105107;1259;67632;-49
2023/08/24 05:28:30;;;;;;;1.80;0.70;;;;;;;18.52;100.00;100005.86;104870;1253;72581;-51
2023/08/24 05:30:58;;;;;;;1.80;0.50;;;;;;;18.54;100.00;100003.48;104899;1254;59665;-50
2023/08/24 05:33:26;;;;;;;1.00;0.50;;;;;;;18.59;100.00;100002.63;105089;1256;59676;-52
2023/08/24 05:35:53;;;;;;;1.00;0.50;;;;;;;18.64;100.00;100003.65;105104;1254;73464;-49
2023/08/24 05:38:20;;;;;;;1.20;0.60;;;;;;;18.70;100.00;100002.12;105040;1254;65838;-49
2023/08/24 05:40:48;;;;;;;1.50;0.80;;;;;;;18.75;100.00;100003.67;105164;1254;72635;-48
2023/08/24 05:43:15;;;;;;;0.60;0.50;;;;;;;18.79;100.00;100003.53;105034;1257;60513;-49
2023/08/24 05:45:44;;;;;;;1.00;0.60;;;;;;;18.84;100.00;100001.14;104830;1254;59727;-49
2023/08/24 05:48:12;;;;;;;1.90;0.60;;;;;;;18.91;100.00;99998.08;105094;1256;73038;-49
2023/08/24 05:50:46;;;;;;;0.90;0.60;;;;;;;18.97;100.00;99992.11;104937;1253;67544;-50
2023/08/24 05:53:13;;;;;;;1.20;0.60;;;;;;;19.04;100.00;99987.20;105911;1254;73336;-49
2023/08/24 05:55:41;;;;;;;0.90;0.60;;;;;;;19.12;100.00;99984.63;104743;1254;59556;-48
2023/08/24 05:58:08;;;;;;;1.00;0.50;;;;;;;19.18;100.00;99980.27;104939;1254;60032;-49
2023/08/24 06:00:35;;;;;;;1.20;0.40;;;;;;;19.25;100.00;99978.56;104842;1259;71839;-51
2023/08/24 06:03:03;;;;;;;0.90;0.50;;;;;;;19.32;100.00;99978.04;104575;1253;66015;-52
2023/08/24 06:05:31;;;;;;;1.50;0.50;;;;;;;19.40;100.00;99981.41;105109;1254;71176;-50
2023/08/24 06:07:59;;;;;;;3.70;0.60;;;;;;;19.47;100.00;99978.65;105280;1257;59983;-52
2023/08/24 06:10:27;;;;;;;0.80;0.50;;;;;;;19.54;100.00;99977.39;104991;1259;59676;-51
2023/08/24 06:12:54;;;;;;;1.50;0.40;;;;;;;19.61;100.00;99976.75;104995;1259;72688;-51
2023/08/24 06:15:26;;;;;;;1.10;0.50;;;;;;;19.70;100.00;99974.95;104482;1254;65631;-50
2023/08/24 06:17:53;;;;;;;1.00;0.50;;;;;;;19.79;100.00;99977.48;104864;1257;71498;-49
2023/08/24 06:20:21;;;;;;;3.40;0.50;;;;;;;19.87;100.00;99976.60;104962;1254;59660;-50
2023/08/24 06:22:48;;;;;;;2.40;0.40;;;;;;;19.97;100.00;99977.27;105021;1258;59637;-49
2023/08/24 06:25:17;;;;;;;0.50;0.30;;;;;;;20.05;100.00;99974.95;105068;1254;72988;-50
2023/08/24 06:27:45;;;;;;;1.50;0.40;;;;;;;20.13;100.00;99976.86;105012;1259;66602;-50
2023/08/24 06:30:12;;;;;;;0.80;0.30;;;;;;;20.20;100.00;99974.73;105003;1256;72771;-50
2023/08/24 06:32:40;;;;;;;0.80;0.30;;;;;;;20.29;100.00;99979.85;105043;1258;60076;-52
2023/08/24 06:35:07;;;;;;;1.00;0.30;;;;;;;20.36;100.00;99981.27;105138;1254;60163;-51
2023/08/24 06:37:35;;;;;;;1.60;0.30;;;;;;;20.43;100.00;99986.13;104913;1254;71685;-50
2023/08/24 06:40:04;;;;;;;0.60;0.30;;;;;;;20.50;100.00;99983.88;105121;1254;65717;-48
2023/08/24 06:42:31;;;;;;;0.40;0.30;;;;;;;20.57;100.00;99983.82;109130;1257;71401;-51
2023/08/24 06:44:59;;;;;;;1.60;0.30;;;;;;;20.65;100.00;99988.61;109092;1256;60039;-51
2023/08/24 06:47:26;;;;;;;1.80;0.30;;;;;;;20.71;100.00;99989.32;109120;1254;60608;-52
2023/08/24 06:49:53;;;;;;;3.30;0.40;;;;;;;20.78;100.00;99991.98;109130;1253;73057;-52
2023/08/24 06:52:21;;;;;;;0.80;0.30;;;;;;;20.86;100.00;99997.91;109073;1253;66795;-51
2023/08/24 06:54:53;;;;;;;1.10;0.40;;;;;;;20.94;100.00;99992.46;109072;1253;72672;-51
2023/08/24 06:57:20;;;;;;;3.50;0.30;;;;;;;21.01;100.00;99995.26;108972;1256;60048;-50
2023/08/24 06:59:48;;;;;;;0.40;0.30;;;;;;;21.10;100.00;99992.14;108944;1254;60110;-52
2023/08/24 07:02:17;;;;;;;2.10;0.40;;;;;;;21.16;100.00;99989.79;109025;1254;73825;-50
2023/08/24 07:04:44;;;;;;;3.70;0.30;;;;;;;21.22;100.00;99994.77;108994;1254;67325;-51
2023/08/24 07:07:12;;;;;;;0.60;0.30;;;;;;;21.28;100.00;99993.65;108947;1254;72889;-53
2023/08/24 07:09:39;;;;;;;0.70;0.30;;;;;;;21.36;100.00;99995.30;109016;1253;59984;-52
2023/08/24 07:12:09;;;;;;;0.90;0.50;;;;;;;21.44;100.00;99996.19;108870;1254;58798;-52
2023/08/24 07:14:37;;;;;;;4.50;0.30;;;;;;;21.54;100.00;99997.49;108976;1257;73921;-52
2023/08/24 07:17:05;;;;;;;0.30;0.20;;;;;;;21.62;100.00;100000.06;106159;1254;67765;-51
2023/08/24 07:19:33;;;;;;;1.20;0.20;;;;;;;21.70;100.00;100003.77;105496;1254;72426;-50
2023/08/24 07:22:01;;;;;;;0.70;0.20;;;;;;;21.76;100.00;100005.58;104970;1254;60427;-51
2023/08/24 07:24:29;;;;;;;0.40;0.20;;;;;;;21.83;100.00;100005.83;104913;1254;60312;-50
2023/08/24 07:27:11;;;;;;;0.30;0.20;;;;;;;21.92;100.00;100005.97;104984;1253;74315;-50
2023/08/24 07:29:39;;;;;;;0.60;0.20;;;;;;;22.00;100.00;100007.80;105058;1254;66875;-51
2023/08/24 07:32:06;;;;;;;0.70;0.30;;;;;;;22.07;100.00;100006.59;105055;1254;73260;-50
2023/08/24 07:34:34;;;;;;;0.30;0.20;;;;;;;22.12;100.00;100009.63;105103;1256;61042;-51
2023/08/24 07:37:01;;;;;;;0.70;0.20;;;;;;;22.15;100.00;100007.83;105148;1258;61093;-51
2023/08/24 07:39:28;;;;;;;0.40;0.20;;;;;;;22.21;100.00;100010.73;105167;1254;72419;-50
2023/08/24 07:41:56;;;;;;;0.80;0.30;;;;;;;22.26;100.00;100009.00;105129;1254;65703;-51
2023/08/24 07:44:23;;;;;;;1.80;0.30;;;;;;;22.31;100.00;100007.46;104914;1254;71401;-50
2023/08/24 07:46:50;;;;;;;0.50;0.30;;;;;;;22.37;100.00;100008.89;104772;1254;61407;-52
2023/08/24 07:49:18;;;;;;;0.70;0.20;;;;;;;22.42;100.00;100011.20;104921;1254;61723;-52
2023/08/24 07:51:47;;;;;;;1.50;0.20;;;;;;;22.45;100.00;100015.25;104753;1254;72620;-51
2023/08/24 07:54:14;;;;;;;0.30;0.20;;;;;;;22.47;100.00;100011.95;104848;1258;66746;-53
2023/08/24 07:56:42;;;;;;;0.40;0.30;;;;;;;22.52;100.00;100010.46;104788;1254;71471;-52
2023/08/24 07:59:09;;;;;;;3.20;0.30;;;;;;;22.59;100.00;100007.58;104968;1255;60568;-50
2023/08/24 08:01:37;;;;;;;0.60;0.30;;;;;;;22.67;100.00;100010.12;105054;1254;60492;-52
2023/08/24 08:04:04;;;;;;;0.50;0.30;;;;;;;22.73;100.00;100007.90;105420;1254;72162;-50
2023/08/24 08:06:31;;;;;;;0.30;0.30;;;;;;;22.79;100.00;100009.67;105124;1254;65332;-50
2023/08/24 08:08:59;;;;;;;1.90;0.30;;;;;;;22.83;100.00;100008.41;104986;1254;72442;-49
2023/08/24 08:11:26;;;;;;;1.10;0.30;;;;;;;22.87;100.00;100007.00;104895;1254;60654;-51
2023/08/24 08:13:53;;;;;;;1.00;0.30;;;;;;;22.90;100.00;100009.55;105015;1254;60530;-50
2023/08/24 08:16:21;;;;;;;1.00;0.20;;;;;;;22.95;100.00;100009.84;105015;1257;73833;-50
2023/08/24 08:18:48;;;;;;;0.60;0.30;;;;;;;23.00;100.00;100008.04;104752;1259;67575;-52
2023/08/24 08:21:19;;;;;;;0.30;0.20;;;;;;;23.05;100.00;100005.98;104748;1254;72686;-52
2023/08/24 08:23:49;;;;;;;2.40;0.30;;;;;;;23.07;100.00;100004.66;105055;1254;60545;-52
2023/08/24 08:26:16;;;;;;;0.40;0.30;;;;;;;23.09;100.00;99999.36;105419;1254;60569;-51
2023/08/24 08:28:44;;;;;;;0.50;0.30;;;;;;;23.11;100.00;100001.35;105064;1258;73626;-50
2023/08/24 08:31:12;;;;;;;1.90;0.30;;;;;;;23.13;100.00;100005.73;105037;1254;66098;-50
2023/08/24 08:33:39;;;;;;;0.80;0.30;;;;;;;23.14;100.00;100005.76;104936;1259;72585;-53
2023/08/24 08:36:06;;;;;;;0.50;0.20;;;;;;;23.17;100.00;100006.21;105078;1254;60625;-50
2023/08/24 08:38:34;;;;;;;0.70;0.40;;;;;;;23.21;100.00;100002.95;105052;1258;61171;-50
2023/08/24 08:41:04;;;;;;;0.70;0.30;;;;;;;23.25;100.00;100005.59;104969;1254;73748;-52
2023/08/24 08:43:32;;;;;;;2.00;0.30;;;;;;;23.26;100.00;99997.67;105340;1254;66725;-51
2023/08/24 08:46:00;;;;;;;1.10;0.20;;;;;;;23.27;100.00;99994.11;104766;1254;73139;-53
2023/08/24 08:48:28;;;;;;;0.50;0.30;;;;;;;23.31;100.00;100001.35;105240;1254;60504;-52
2023/08/24 08:50:57;;;;;;;0.50;0.50;;;;;;;23.36;100.00;100000.53;104895;1259;60901;-53
2023/08/24 08:53:24;;;;;;;0.80;0.30;;;;;;;23.40;100.00;100001.61;104841;1254;74262;-51
2023/08/24 08:55:53;;;;;;;0.30;0.20;;;;;;;23.45;100.00;100001.69;104881;1253;66415;-54
2023/08/24 08:58:20;;;;;;;0.50;0.30;;;;;;;23.53;100.00;99995.47;104942;1254;72524;-51
2023/08/24 09:00:48;;;;;;;0.20;0.20;;;;;;;23.57;100.00;99993.53;105018;1254;60558;-50
2023/08/24 09:03:17;;;;;;;0.50;0.20;;;;;;;23.56;100.00;99991.77;105083;1257;60492;-50
2023/08/24 09:05:47;;;;;;;1.50;0.30;;;;;;;23.60;100.00;99985.98;105512;1259;74391;-52
2023/08/24 09:08:18;;;;;;;1.90;0.20;;;;;;;23.61;100.00;99990.03;105855;1254;65703;-50
2023/08/24 09:10:45;;;;;;;0.40;0.20;;;;;;;23.63;100.00;99994.59;105059;1254;72668;-50
2023/08/24 09:13:13;;;;;;;1.20;0.30;;;;;;;23.68;100.00;99995.55;105168;1257;60543;-52
2023/08/24 09:15:40;;;;;;;0.50;0.20;;;;;;;23.76;100.00;99989.41;105166;1254;60344;-52
2023/08/24 09:18:08;;;;;;;0.70;0.30;;;;;;;23.84;100.00;99985.69;105197;1259;74366;-52
2023/08/24 09:20:36;;;;;;;2.30;0.30;;;;;;;23.95;100.00;99982.25;105133;1259;66791;-50
2023/08/24 09:23:03;;;;;;;0.70;0.30;;;;;;;24.08;100.00;99984.05;105595;1254;72725;-51
2023/08/24 09:25:31;;;;;;;4.90;0.30;;;;;;;24.22;100.00;99985.05;105006;1257;60837;-49
2023/08/24 09:28:06;;;;;;;0.40;0.30;;;;;;;24.26;100.00;99984.10;105197;1257;60504;-49
2023/08/24 09:30:35;;;;;;;0.50;0.30;;;;;;;24.19;100.00;99982.77;105061;1254;72701;-49
2023/08/24 09:33:04;;;;;;;1.90;0.40;;;;;;;24.10;100.00;99986.73;109042;1254;67362;-51
2023/08/24 09:35:35;;;;;;;0.40;0.30;;;;;;;24.00;100.00;99983.71;109143;1254;71757;-51
2023/08/24 09:38:22;;;;;;;0.50;0.30;;;;;;;23.97;100.00;99988.82;109139;1254;60518;-52
2023/08/24 09:40:53;;;;;;;1.20;0.30;;;;;;;23.98;100.00;99981.97;109166;1254;59254;-50
2023/08/24 09:43:21;;;;;;;1.60;0.30;;;;;;;24.05;100.00;99987.11;109127;1254;74447;-52
2023/08/24 09:45:50;;;;;;;1.30;0.20;;;;;;;24.16;100.00;99982.52;109149;1254;65510;-51
2023/08/24 09:48:17;;;;;;;2.10;0.30;;;;;;;24.25;100.00;99985.27;109104;1254;72741;-52
2023/08/24 09:50:46;;;;;;;1.40;0.20;;;;;;;24.34;100.00;99983.20;109089;1256;60063;-50
2023/08/24 09:53:20;;;;;;;0.50;0.20;;;;;;;24.44;100.00;99976.72;109138;1254;58964;-49
2023/08/24 09:55:48;;;;;;;0.50;0.40;;;;;;;24.55;100.00;99974.29;109186;1253;72606;-50
2023/08/24 09:58:15;;;;;;;0.70;0.20;;;;;;;24.63;100.00;99974.05;109199;1253;65135;-51
2023/08/24 10:00:43;;;;;;;3.60;0.30;;;;;;;24.70;100.00;99973.81;109195;1254;71068;-52
2023/08/24 10:03:10;;;;;;;0.40;0.20;;;;;;;24.80;100.00;99970.17;109032;1254;60138;-51
2023/08/24 10:05:38;;;;;;;0.40;0.20;;;;;;;24.92;100.00;99976.89;106272;1254;60400;-51
2023/08/24 10:08:26;;;;;;;0.50;0.30;;;;;;;25.01;100.00;99972.69;104953;1257;72145;-50
2023/08/24 10:10:55;;;;;;;0.20;0.20;;;;;;;25.07;100.00;99977.52;105163;1254;66955;-51
2023/08/24 10:13:44;;;;;;;1.10;0.30;;;;;;;25.13;100.00;99973.94;105920;1256;71906;-52
2023/08/24 10:16:12;;;;;;;0.80;0.30;;;;;;;25.19;100.00;99973.29;106006;1254;60444;-50
2023/08/24 10:18:40;;;;;;;1.20;0.30;;;;;;;25.19;100.00;99971.60;105282;1254;60476;-48
2023/08/24 10:21:08;;;;;;;0.50;0.30;;;;;;;25.09;100.00;99969.96;104704;1254;72626;-49
2023/08/24 10:23:36;;;;;;;0.90;0.40;;;;;;;24.98;100.00;99972.70;104797;1258;66720;-50
2023/08/24 10:26:03;;;;;;;1.50;0.20;;;;;;;24.88;100.00;99969.33;105200;1259;70812;-51
2023/08/24 10:28:32;;;;;;;2.40;0.30;;;;;;;24.74;100.00;99971.40;104744;1258;60641;-50
2023/08/24 10:30:59;;;;;;;0.80;0.30;;;;;;;24.64;100.00;99974.14;104738;1254;60524;-52
2023/08/24 10:33:27;;;;;;;0.30;0.30;;;;;;;24.56;100.00;99980.66;104983;1253;73810;-50
2023/08/24 10:35:54;;;;;;;0.50;0.20;;;;;;;24.46;100.00;99975.92;105311;1260;66960;-52
2023/08/24 10:38:31;;;;;;;1.80;0.20;;;;;;;24.38;100.00;99977.88;104861;1254;71460;-52
2023/08/24 10:41:05;;;;;;;0.70;0.40;;;;;;;24.32;100.00;99979.43;104607;1254;60572;-52
2023/08/24 10:43:48;;;;;;;0.40;0.30;;;;;;;24.26;100.00;99982.17;105781;1257;61017;-51
2023/08/24 10:46:18;;;;;;;1.50;0.30;;;;;;;24.23;100.00;99981.45;104812;1259;73894;-51
2023/08/24 10:48:49;;;;;;;0.30;0.20;;;;;;;24.25;100.00;99977.80;104998;1257;67217;-50
2023/08/24 10:51:20;;;;;;;2.50;0.20;;;;;;;24.28;100.00;99972.86;104885;1254;73264;-52
2023/08/24 10:53:52;;;;;;;2.20;0.30;;;;;;;24.34;100.00;99974.45;105060;1254;60620;-50
2023/08/24 10:56:20;;;;;;;16.00;0.60;;;;;;;24.43;100.00;99966.20;105560;1254;60565;-50
2023/08/24 10:58:48;;;;;;;3.00;0.30;;;;;;;24.53;100.00;99970.08;104895;1260;73818;-51
2023/08/24 11:01:17;;;;;;;3.30;0.30;;;;;;;24.61;100.00;99973.83;106523;1260;66724;-52
2023/08/24 11:04:05;;;;;;;0.70;0.20;;;;;;;24.64;100.00;99973.41;105213;1257;71381;-49
2023/08/24 11:06:32;;;;;;;1.60;0.30;;;;;;;24.59;100.00;99969.64;104914;1254;60529;-51
2023/08/24 11:09:13;;;;;;;1.10;0.20;;;;;;;24.53;100.00;99975.09;104857;1254;60387;-48
2023/08/24 11:11:41;;;;;;;0.80;0.20;;;;;;;24.47;100.00;99972.16;105064;1259;74251;-49
2023/08/24 11:14:30;;;;;;;0.90;0.40;;;;;;;24.42;100.00;99969.23;104815;1259;66814;-48
2023/08/24 11:17:00;;;;;;;0.60;0.30;;;;;;;24.37;100.00;99971.58;104971;1259;72698;-49
2023/08/24 11:19:28;;;;;;;0.30;0.20;;;;;;;24.32;100.00;99966.20;105215;1257;60420;-47
2023/08/24 11:21:55;;;;;;;0.40;0.30;;;;;;;24.30;100.00;99967.75;104708;1254;60393;-51